Time;durP1;ratioP1;P1;durP2;ratioP2;P2;SDS_P1;SDS_P2;PMS_P1;PMS_P2;Temp;Humidity;BMP_temperature;BMP_pressure;BME280_temperature;BME280_humidity;BME280_pressure;Samples;Min_cycle;Max_cycle;Signal;HPM_P1;HPM_P2
2024/01/13 00:01:54;;;;;;;15.48;4.05;;;;;;;;;;5091983;28;20127;-66
2024/01/13 00:04:21;;;;;;;27.33;3.97;;;;;;;;;;5089906;28;20040;-66
2024/01/13 00:06:47;;;;;;;20.95;3.42;;;;;;;;;;5088350;28;20450;-66
2024/01/13 00:09:13;;;;;;;21.52;3.97;;;;;;;;;;5071706;28;20051;-66
2024/01/13 00:11:39;;;;;;;18.00;3.63;;;;;;;;;;5091735;28;20039;-66
2024/01/13 00:14:05;;;;;;;17.40;3.90;;;;;;;;;;5099452;28;20118;-66
2024/01/13 00:16:31;;;;;;;17.00;4.13;;;;;;;;;;5097157;28;20044;-66
2024/01/13 00:18:58;;;;;;;23.20;4.00;;;;;;;;;;5086740;28;20054;-66
2024/01/13 00:21:24;;;;;;;15.10;4.05;;;;;;;;;;5085599;28;20116;-66
2024/01/13 00:23:50;;;;;;;21.23;4.97;;;;;;;;;;5088472;28;20463;-66
2024/01/13 00:26:16;;;;;;;19.77;4.32;;;;;;;;;;5099446;28;20043;-66
2024/01/13 00:28:42;;;;;;;18.60;3.78;;;;;;;;;;5087698;28;20040;-66
2024/01/13 00:31:09;;;;;;;20.08;3.90;;;;;;;;;;5087874;27;20044;-66
2024/01/13 00:33:35;;;;;;;13.45;3.88;;;;;;;;;;5102629;27;20442;-67
2024/01/13 00:36:01;;;;;;;18.17;4.18;;;;;;;;;;5103750;27;20054;-66
2024/01/13 00:38:27;;;;;;;16.60;3.72;;;;;;;;;;5085576;27;20051;-66
2024/01/13 00:40:54;;;;;;;14.82;4.57;;;;;;;;;;5119271;27;20100;-66
2024/01/13 00:43:20;;;;;;;15.07;3.80;;;;;;;;;;5119158;27;20859;-66
2024/01/13 00:45:46;;;;;;;15.60;3.33;;;;;;;;;;5101798;27;20047;-66
2024/01/13 00:48:12;;;;;;;15.60;3.85;;;;;;;;;;5115871;27;20035;-66
2024/01/13 00:50:38;;;;;;;18.77;3.40;;;;;;;;;;5096853;27;20062;-66
2024/01/13 00:53:05;;;;;;;12.45;3.65;;;;;;;;;;5099742;27;20146;-66
2024/01/13 00:55:31;;;;;;;17.35;3.53;;;;;;;;;;5098204;28;20058;-66
2024/01/13 00:57:57;;;;;;;10.25;2.67;;;;;;;;;;5101257;27;20458;-66
2024/01/13 01:00:23;;;;;;;18.50;3.88;;;;;;;;;;5101472;27;20125;-66
2024/01/13 01:02:49;;;;;;;18.77;2.53;;;;;;;;;;5099692;27;20501;-66
2024/01/13 01:05:15;;;;;;;10.65;2.00;;;;;;;;;;5118786;27;20243;-66
2024/01/13 01:07:42;;;;;;;17.85;2.85;;;;;;;;;;5119429;27;20065;-66
2024/01/13 01:10:08;;;;;;;12.60;2.28;;;;;;;;;;5117322;27;20043;-66
2024/01/13 01:12:34;;;;;;;11.68;2.63;;;;;;;;;;5114522;27;20118;-66
2024/01/13 01:15:00;;;;;;;9.55;1.95;;;;;;;;;;5097865;27;20074;-66
2024/01/13 01:17:26;;;;;;;9.50;2.15;;;;;;;;;;5099134;27;20053;-66
2024/01/13 01:19:53;;;;;;;11.25;2.38;;;;;;;;;;5097566;27;20087;-66
2024/01/13 01:22:19;;;;;;;14.27;3.13;;;;;;;;;;5117896;27;20048;-66
2024/01/13 01:24:46;;;;;;;12.32;4.40;;;;;;;;;;5095811;27;20051;-66
2024/01/13 01:27:13;;;;;;;12.43;2.40;;;;;;;;;;5097932;27;20043;-66
2024/01/13 01:29:39;;;;;;;13.60;2.35;;;;;;;;;;5099295;27;20054;-66
2024/01/13 01:32:05;;;;;;;17.02;2.40;;;;;;;;;;5098339;27;20600;-66
2024/01/13 01:34:31;;;;;;;5.80;2.00;;;;;;;;;;5096927;27;20055;-66
2024/01/13 01:36:58;;;;;;;14.25;2.10;;;;;;;;;;5117020;27;20401;-66
2024/01/13 01:39:24;;;;;;;7.55;2.10;;;;;;;;;;5119961;27;20155;-66
2024/01/13 01:41:50;;;;;;;15.80;2.70;;;;;;;;;;5119234;27;20090;-66
2024/01/13 01:44:17;;;;;;;11.30;3.03;;;;;;;;;;5081858;27;20506;-66
2024/01/13 01:46:44;;;;;;;8.38;2.60;;;;;;;;;;5103669;27;20430;-66
2024/01/13 01:49:13;;;;;;;8.57;1.77;;;;;;;;;;5100104;27;20372;-66
2024/01/13 01:51:39;;;;;;;10.13;1.90;;;;;;;;;;5101276;27;20130;-66
2024/01/13 01:54:05;;;;;;;5.00;1.83;;;;;;;;;;5101166;27;20092;-66
2024/01/13 01:56:34;;;;;;;11.43;2.15;;;;;;;;;;5114945;27;20493;-66
2024/01/13 01:59:01;;;;;;;6.60;1.50;;;;;;;;;;5116781;27;20115;-66
2024/01/13 02:01:30;;;;;;;6.00;1.42;;;;;;;;;;5112501;27;20039;-66
2024/01/13 02:03:56;;;;;;;9.20;1.55;;;;;;;;;;5097595;27;20134;-66
2024/01/13 02:06:23;;;;;;;6.53;1.20;;;;;;;;;;5097092;27;20042;-66
2024/01/13 02:08:49;;;;;;;7.78;1.63;;;;;;;;;;5073362;27;20143;-66
2024/01/13 02:11:16;;;;;;;6.35;1.60;;;;;;;;;;5092048;27;20047;-66
2024/01/13 02:13:43;;;;;;;9.38;1.52;;;;;;;;;;5115403;27;20487;-66
2024/01/13 02:16:09;;;;;;;8.13;1.25;;;;;;;;;;5095971;27;20555;-66
2024/01/13 02:18:36;;;;;;;7.88;1.35;;;;;;;;;;5098023;27;20654;-66
2024/01/13 02:21:02;;;;;;;5.25;1.00;;;;;;;;;;5117480;27;20081;-66
2024/01/13 02:23:29;;;;;;;4.85;1.45;;;;;;;;;;5096331;27;20035;-66
2024/01/13 02:25:55;;;;;;;7.93;1.40;;;;;;;;;;5096378;27;20398;-66
2024/01/13 02:28:22;;;;;;;5.63;1.30;;;;;;;;;;5097668;28;20486;-66
2024/01/13 02:30:48;;;;;;;4.95;1.20;;;;;;;;;;5119022;27;20055;-66
2024/01/13 02:33:14;;;;;;;6.85;1.33;;;;;;;;;;5100688;27;20039;-66
2024/01/13 02:35:40;;;;;;;6.28;1.63;;;;;;;;;;5091324;28;21039;-66
2024/01/13 02:38:06;;;;;;;5.97;1.23;;;;;;;;;;5096846;27;20130;-66
2024/01/13 02:40:32;;;;;;;8.27;1.77;;;;;;;;;;5115476;27;20035;-66
2024/01/13 02:42:59;;;;;;;7.15;1.40;;;;;;;;;;5100414;28;20044;-66
2024/01/13 02:45:25;;;;;;;8.63;2.05;;;;;;;;;;5120891;27;20226;-66
2024/01/13 02:48:05;;;;;;;8.43;2.00;;;;;;;;;;5100311;27;20185;-66
2024/01/13 02:50:31;;;;;;;7.35;2.72;;;;;;;;;;5100651;28;20130;-66
2024/01/13 02:52:57;;;;;;;9.43;2.45;;;;;;;;;;5081732;28;20154;-66
2024/01/13 02:55:23;;;;;;;9.65;2.30;;;;;;;;;;5120252;27;20047;-66
2024/01/13 02:57:50;;;;;;;7.80;1.77;;;;;;;;;;5097941;28;20047;-66
2024/01/13 03:00:17;;;;;;;9.20;2.13;;;;;;;;;;5116902;28;21309;-66
2024/01/13 03:02:44;;;;;;;9.75;2.53;;;;;;;;;;5113780;28;20450;-66
2024/01/13 03:05:10;;;;;;;14.43;2.50;;;;;;;;;;5097997;28;20116;-66
2024/01/13 03:07:36;;;;;;;11.35;2.10;;;;;;;;;;5100842;28;20035;-66
2024/01/13 03:10:03;;;;;;;9.32;1.90;;;;;;;;;;5116141;28;20067;-66
2024/01/13 03:12:29;;;;;;;6.20;1.92;;;;;;;;;;5118881;28;20085;-66
2024/01/13 03:14:56;;;;;;;8.10;2.10;;;;;;;;;;5116647;28;20035;-66
2024/01/13 03:17:23;;;;;;;8.68;1.83;;;;;;;;;;5117249;28;20094;-66
2024/01/13 03:19:49;;;;;;;11.25;2.45;;;;;;;;;;5099252;28;20051;-66
2024/01/13 03:22:15;;;;;;;8.02;2.33;;;;;;;;;;5119182;28;20063;-66
2024/01/13 03:24:41;;;;;;;12.68;3.15;;;;;;;;;;5101999;28;20054;-66
2024/01/13 03:27:07;;;;;;;11.43;2.67;;;;;;;;;;5097652;28;20221;-66
2024/01/13 03:29:33;;;;;;;12.13;2.47;;;;;;;;;;5094894;28;20463;-66
2024/01/13 03:32:00;;;;;;;13.43;2.72;;;;;;;;;;5096500;27;20123;-66
2024/01/13 03:34:26;;;;;;;8.32;2.80;;;;;;;;;;5074441;28;20181;-66
2024/01/13 03:36:52;;;;;;;9.23;2.55;;;;;;;;;;5093949;28;20044;-66
2024/01/13 03:39:18;;;;;;;5.53;2.45;;;;;;;;;;5079288;28;20104;-66
2024/01/13 03:41:44;;;;;;;12.43;2.90;;;;;;;;;;5078651;28;20036;-66
2024/01/13 03:44:11;;;;;;;6.32;2.42;;;;;;;;;;5080428;28;20070;-66
2024/01/13 03:46:37;;;;;;;13.07;2.42;;;;;;;;;;5092146;28;20051;-66
2024/01/13 03:49:03;;;;;;;11.05;2.88;;;;;;;;;;5084324;28;20040;-66
2024/01/13 03:51:29;;;;;;;12.95;3.05;;;;;;;;;;5079715;28;20047;-66
2024/01/13 03:53:56;;;;;;;10.30;3.40;;;;;;;;;;5080252;28;20066;-66
2024/01/13 03:56:22;;;;;;;17.45;3.05;;;;;;;;;;5080459;28;20044;-66
2024/01/13 03:58:48;;;;;;;12.00;2.75;;;;;;;;;;5100059;28;20043;-66
2024/01/13 04:01:15;;;;;;;14.65;4.40;;;;;;;;;;5082086;28;20360;-66
2024/01/13 04:03:41;;;;;;;8.65;2.25;;;;;;;;;;5076053;28;20051;-67
2024/01/13 04:06:08;;;;;;;5.97;2.53;;;;;;;;;;5082826;28;20063;-66
2024/01/13 04:08:34;;;;;;;13.40;2.40;;;;;;;;;;5081984;28;20445;-66
2024/01/13 04:11:00;;;;;;;17.20;2.30;;;;;;;;;;5081158;28;20184;-66
2024/01/13 04:13:26;;;;;;;11.98;2.25;;;;;;;;;;5080855;28;21545;-66
2024/01/13 04:15:53;;;;;;;13.02;2.15;;;;;;;;;;5097816;28;20035;-66
2024/01/13 04:18:19;;;;;;;10.38;2.33;;;;;;;;;;5095352;28;20432;-66
2024/01/13 04:20:45;;;;;;;10.75;2.20;;;;;;;;;;5096608;28;21259;-66
2024/01/13 04:23:11;;;;;;;11.02;1.83;;;;;;;;;;5097062;28;20046;-66
2024/01/13 04:25:37;;;;;;;7.82;2.20;;;;;;;;;;5078247;28;20144;-66
2024/01/13 04:28:04;;;;;;;7.68;1.63;;;;;;;;;;5100856;28;20156;-66
2024/01/13 04:30:30;;;;;;;4.93;1.58;;;;;;;;;;5100077;28;20051;-66
2024/01/13 04:32:57;;;;;;;4.57;1.30;;;;;;;;;;5090518;28;20048;-66
2024/01/13 04:35:23;;;;;;;6.95;1.50;;;;;;;;;;5092688;28;20055;-66
2024/01/13 04:37:49;;;;;;;6.65;2.22;;;;;;;;;;5102017;28;20036;-66
2024/01/13 04:40:15;;;;;;;10.73;1.63;;;;;;;;;;5095721;28;20051;-66
2024/01/13 04:42:42;;;;;;;5.57;1.23;;;;;;;;;;5087442;28;20499;-66
2024/01/13 04:45:08;;;;;;;9.52;1.10;;;;;;;;;;5090337;28;20040;-66
2024/01/13 04:47:34;;;;;;;10.52;1.70;;;;;;;;;;5086967;28;21453;-66
2024/01/13 04:50:01;;;;;;;10.07;1.70;;;;;;;;;;5071857;28;20479;-66
2024/01/13 04:52:27;;;;;;;9.75;1.40;;;;;;;;;;5089062;28;20051;-66
2024/01/13 04:54:53;;;;;;;8.70;1.25;;;;;;;;;;5089130;28;20484;-66
2024/01/13 04:57:19;;;;;;;4.68;1.30;;;;;;;;;;5086939;28;20061;-66
2024/01/13 04:59:45;;;;;;;10.02;2.22;;;;;;;;;;5095282;27;20140;-66
2024/01/13 05:02:12;;;;;;;7.03;1.55;;;;;;;;;;5092112;28;20079;-66
2024/01/13 05:04:39;;;;;;;8.02;1.58;;;;;;;;;;5084880;28;20384;-66
2024/01/13 05:07:05;;;;;;;9.05;1.40;;;;;;;;;;5099075;28;20384;-66
2024/01/13 05:09:31;;;;;;;7.13;1.50;;;;;;;;;;5094216;27;20055;-66
2024/01/13 05:11:57;;;;;;;2.83;0.90;;;;;;;;;;5083978;28;20051;-66
2024/01/13 05:14:24;;;;;;;3.92;0.90;;;;;;;;;;5089747;28;20985;-66
2024/01/13 05:16:50;;;;;;;7.18;1.40;;;;;;;;;;5074485;28;20048;-66
2024/01/13 05:19:18;;;;;;;9.27;1.50;;;;;;;;;;5086764;28;20047;-66
2024/01/13 05:21:44;;;;;;;10.88;1.70;;;;;;;;;;5095633;28;20043;-66
2024/01/13 05:24:12;;;;;;;3.28;1.27;;;;;;;;;;5084925;28;20394;-66
2024/01/13 05:26:38;;;;;;;5.55;1.38;;;;;;;;;;5070939;28;20044;-66
2024/01/13 05:29:04;;;;;;;7.78;1.60;;;;;;;;;;5086500;28;20043;-66
2024/01/13 05:31:31;;;;;;;4.10;1.35;;;;;;;;;;5084177;28;20071;-66
2024/01/13 05:33:57;;;;;;;8.35;2.25;;;;;;;;;;5090862;28;20047;-66
2024/01/13 05:36:23;;;;;;;8.35;2.17;;;;;;;;;;5097595;28;20047;-66
2024/01/13 05:38:49;;;;;;;9.13;2.05;;;;;;;;;;5097152;28;20663;-66
2024/01/13 05:41:15;;;;;;;7.25;2.33;;;;;;;;;;5088009;28;20292;-68
2024/01/13 05:43:41;;;;;;;9.15;2.40;;;;;;;;;;5084689;28;20039;-66
2024/01/13 05:46:11;;;;;;;10.63;3.65;;;;;;;;;;5095912;28;20050;-66
2024/01/13 05:48:37;;;;;;;8.90;1.90;;;;;;;;;;5090787;28;20108;-66
2024/01/13 05:51:04;;;;;;;6.30;2.17;;;;;;;;;;5098889;28;20046;-66
2024/01/13 05:53:30;;;;;;;4.97;1.73;;;;;;;;;;5091664;28;20099;-66
2024/01/13 05:55:56;;;;;;;9.13;2.10;;;;;;;;;;5092363;28;20499;-66
2024/01/13 05:58:22;;;;;;;8.07;3.15;;;;;;;;;;5098182;28;20131;-66
2024/01/13 06:00:48;;;;;;;6.35;1.90;;;;;;;;;;5099252;28;20208;-66
2024/01/13 06:03:15;;;;;;;5.28;1.85;;;;;;;;;;5092018;28;20036;-66
2024/01/13 06:05:41;;;;;;;6.85;1.88;;;;;;;;;;5089410;28;20039;-66
2024/01/13 06:08:07;;;;;;;7.00;1.95;;;;;;;;;;5092417;28;20040;-66
2024/01/13 06:10:34;;;;;;;8.27;1.85;;;;;;;;;;5089928;28;20043;-66
2024/01/13 06:13:01;;;;;;;7.18;1.58;;;;;;;;;;5076830;28;20053;-67
2024/01/13 06:15:28;;;;;;;7.75;2.90;;;;;;;;;;5092514;28;20097;-66
2024/01/13 06:17:54;;;;;;;9.93;2.10;;;;;;;;;;5102368;28;20481;-66
2024/01/13 06:20:20;;;;;;;8.13;1.25;;;;;;;;;;5095344;28;20609;-66
2024/01/13 06:22:46;;;;;;;5.25;1.30;;;;;;;;;;5098999;28;20065;-66
2024/01/13 06:25:13;;;;;;;10.50;1.90;;;;;;;;;;5098716;28;20055;-66
2024/01/13 06:27:39;;;;;;;12.32;1.95;;;;;;;;;;5093794;28;20419;-66
2024/01/13 06:30:06;;;;;;;7.72;1.90;;;;;;;;;;5095858;28;20069;-66
2024/01/13 06:32:33;;;;;;;5.13;1.60;;;;;;;;;;5102811;27;20123;-66
2024/01/13 06:34:59;;;;;;;6.10;1.70;;;;;;;;;;5101796;28;20035;-66
2024/01/13 06:37:25;;;;;;;5.38;1.90;;;;;;;;;;5110641;27;20059;-67
2024/01/13 06:39:51;;;;;;;10.38;2.28;;;;;;;;;;5087118;28;20146;-67
2024/01/13 06:42:18;;;;;;;9.32;2.25;;;;;;;;;;5104452;28;20127;-67
2024/01/13 06:44:44;;;;;;;13.90;2.05;;;;;;;;;;5088084;27;20446;-66
2024/01/13 06:47:10;;;;;;;11.43;2.50;;;;;;;;;;5108208;27;20046;-66
2024/01/13 06:49:36;;;;;;;10.77;2.90;;;;;;;;;;5119533;27;20075;-65
2024/01/13 06:52:02;;;;;;;8.27;3.20;;;;;;;;;;5119963;27;20057;-65
2024/01/13 06:54:29;;;;;;;12.10;4.20;;;;;;;;;;5096506;28;20437;-66
2024/01/13 06:56:55;;;;;;;19.63;5.93;;;;;;;;;;5100824;28;20047;-66
2024/01/13 06:59:21;;;;;;;23.48;9.25;;;;;;;;;;5114518;28;20047;-66
2024/01/13 07:01:48;;;;;;;32.17;14.50;;;;;;;;;;5117582;28;20043;-66
2024/01/13 07:04:14;;;;;;;37.95;16.17;;;;;;;;;;5117842;28;20075;-66
2024/01/13 07:06:40;;;;;;;39.95;19.77;;;;;;;;;;5102189;28;20039;-66
2024/01/13 07:09:07;;;;;;;51.78;21.48;;;;;;;;;;5100681;28;20061;-65
2024/01/13 07:11:33;;;;;;;52.97;25.42;;;;;;;;;;5100635;28;20509;-66
2024/01/13 07:13:59;;;;;;;52.78;27.83;;;;;;;;;;5100230;28;20067;-66
2024/01/13 07:16:26;;;;;;;56.00;27.42;;;;;;;;;;5121318;28;20166;-66
2024/01/13 07:18:52;;;;;;;67.30;28.35;;;;;;;;;;5115578;28;20399;-65
2024/01/13 07:21:18;;;;;;;57.22;26.05;;;;;;;;;;5120327;28;20074;-66
2024/01/13 07:23:44;;;;;;;57.38;27.90;;;;;;;;;;5082962;27;20623;-66
2024/01/13 07:26:10;;;;;;;58.75;28.20;;;;;;;;;;5120305;27;20043;-66
2024/01/13 07:28:37;;;;;;;59.72;28.48;;;;;;;;;;5119791;27;20092;-66
2024/01/13 07:31:03;;;;;;;61.53;29.85;;;;;;;;;;5116108;27;20134;-66
2024/01/13 07:33:30;;;;;;;59.10;28.52;;;;;;;;;;5123144;27;20092;-66
2024/01/13 07:35:56;;;;;;;58.72;30.35;;;;;;;;;;5098612;27;20127;-66
2024/01/13 07:38:23;;;;;;;63.45;31.75;;;;;;;;;;5103804;27;20058;-66
2024/01/13 07:40:49;;;;;;;56.10;29.48;;;;;;;;;;5101313;27;20425;-66
2024/01/13 07:43:15;;;;;;;60.58;31.58;;;;;;;;;;5117294;27;20036;-66
2024/01/13 07:45:41;;;;;;;68.22;32.00;;;;;;;;;;5116978;27;20042;-66
2024/01/13 07:48:08;;;;;;;68.18;33.72;;;;;;;;;;5101472;27;20036;-66
2024/01/13 07:50:34;;;;;;;72.13;32.17;;;;;;;;;;5100227;27;20100;-70
2024/01/13 07:53:00;;;;;;;57.13;30.25;;;;;;;;;;5083573;27;20058;-67
2024/01/13 07:55:26;;;;;;;65.18;32.17;;;;;;;;;;5101795;27;20075;-69
2024/01/13 07:57:53;;;;;;;58.50;29.65;;;;;;;;;;5101161;27;20122;-67
2024/01/13 08:00:20;;;;;;;59.17;31.35;;;;;;;;;;5127455;27;20039;-73
2024/01/13 08:02:46;;;;;;;65.93;33.03;;;;;;;;;;5107044;27;20066;-67
2024/01/13 08:05:13;;;;;;;58.35;33.10;;;;;;;;;;5127976;27;20047;-67
2024/01/13 08:07:39;;;;;;;58.63;33.92;;;;;;;;;;5094706;27;20495;-67
2024/01/13 08:10:06;;;;;;;60.55;33.85;;;;;;;;;;5123480;27;20047;-66
2024/01/13 08:12:32;;;;;;;67.50;33.72;;;;;;;;;;5123393;27;20516;-66
2024/01/13 08:14:58;;;;;;;66.57;37.53;;;;;;;;;;5123885;27;20094;-65
2024/01/13 08:17:25;;;;;;;68.13;35.63;;;;;;;;;;5120732;27;20479;-65
2024/01/13 08:19:51;;;;;;;66.15;37.75;;;;;;;;;;5099489;27;20186;-66
2024/01/13 08:22:17;;;;;;;65.15;38.85;;;;;;;;;;5100672;27;20040;-65
2024/01/13 08:24:43;;;;;;;66.63;37.13;;;;;;;;;;5102858;27;20194;-66
2024/01/13 08:27:10;;;;;;;73.80;39.08;;;;;;;;;;5118962;27;20130;-65
2024/01/13 08:29:36;;;;;;;68.55;38.08;;;;;;;;;;5122157;27;20462;-66
2024/01/13 08:32:02;;;;;;;67.63;40.92;;;;;;;;;;5104776;27;20047;-66
2024/01/13 08:34:28;;;;;;;77.90;43.13;;;;;;;;;;5098630;27;20133;-69
2024/01/13 08:36:54;;;;;;;73.25;41.13;;;;;;;;;;5100209;27;20054;-70
2024/01/13 08:39:21;;;;;;;73.78;40.65;;;;;;;;;;5104258;27;20062;-71
2024/01/13 08:41:47;;;;;;;72.82;41.33;;;;;;;;;;5102886;27;20139;-70
2024/01/13 08:44:15;;;;;;;73.07;41.55;;;;;;;;;;5119909;27;20163;-72
2024/01/13 08:46:41;;;;;;;68.38;41.63;;;;;;;;;;5119809;27;20129;-66
2024/01/13 08:49:08;;;;;;;64.93;38.53;;;;;;;;;;5119000;27;20489;-66
2024/01/13 08:51:35;;;;;;;61.58;39.35;;;;;;;;;;5098092;27;21784;-70
2024/01/13 08:54:01;;;;;;;67.47;39.10;;;;;;;;;;5101353;27;20039;-71
2024/01/13 08:56:27;;;;;;;61.08;38.10;;;;;;;;;;5101434;27;20077;-73
2024/01/13 08:58:53;;;;;;;62.58;35.63;;;;;;;;;;5100310;27;20055;-72
2024/01/13 09:01:19;;;;;;;56.00;33.90;;;;;;;;;;5098810;27;20039;-71
2024/01/13 09:03:46;;;;;;;59.85;33.67;;;;;;;;;;5099111;27;20088;-71
2024/01/13 09:06:12;;;;;;;54.08;31.52;;;;;;;;;;5101141;27;20067;-72
2024/01/13 09:08:39;;;;;;;55.25;32.97;;;;;;;;;;5101600;27;20068;-72
2024/01/13 09:11:05;;;;;;;58.58;31.35;;;;;;;;;;5099170;27;20034;-66
2024/01/13 09:13:31;;;;;;;52.55;29.55;;;;;;;;;;5118808;27;20431;-65
2024/01/13 09:15:58;;;;;;;56.40;31.42;;;;;;;;;;5117907;27;20122;-66
2024/01/13 09:18:25;;;;;;;48.58;29.55;;;;;;;;;;5098413;27;20142;-70
2024/01/13 09:20:53;;;;;;;55.00;29.33;;;;;;;;;;5099051;27;20078;-70
2024/01/13 09:23:19;;;;;;;51.97;29.83;;;;;;;;;;5098488;27;20150;-70
2024/01/13 09:25:45;;;;;;;51.03;28.50;;;;;;;;;;5100448;27;20422;-69
2024/01/13 09:28:11;;;;;;;45.78;27.08;;;;;;;;;;5097830;27;20043;-69
2024/01/13 09:30:38;;;;;;;56.38;28.17;;;;;;;;;;5119607;27;20031;-69
2024/01/13 09:33:05;;;;;;;46.72;26.15;;;;;;;;;;5120344;27;20133;-69
2024/01/13 09:35:31;;;;;;;51.83;26.98;;;;;;;;;;5099737;27;20062;-69
2024/01/13 09:37:59;;;;;;;50.17;26.10;;;;;;;;;;5099204;27;20035;-69
2024/01/13 09:40:25;;;;;;;51.80;25.27;;;;;;;;;;5079888;27;20051;-69
2024/01/13 09:43:08;;;;;;;43.40;22.58;;;;;;;;;;5096451;27;20438;-70
2024/01/13 09:45:38;;;;;;;36.67;20.77;;;;;;;;;;5119107;27;20685;-70
2024/01/13 09:48:08;;;;;;;42.65;20.20;;;;;;;;;;5119028;27;20087;-70
2024/01/13 09:50:35;;;;;;;43.95;19.15;;;;;;;;;;5078571;27;20075;-70
2024/01/13 09:53:03;;;;;;;35.75;18.35;;;;;;;;;;5121448;27;20047;-70
2024/01/13 09:55:32;;;;;;;33.45;16.55;;;;;;;;;;5120775;27;20471;-66
2024/01/13 09:57:59;;;;;;;30.63;15.38;;;;;;;;;;5123860;27;21205;-66
2024/01/13 10:00:30;;;;;;;26.27;13.70;;;;;;;;;;5101778;27;21044;-66
2024/01/13 10:02:57;;;;;;;30.00;13.48;;;;;;;;;;5105019;27;20070;-66
2024/01/13 10:05:23;;;;;;;32.90;13.38;;;;;;;;;;5075415;27;20491;-66
2024/01/13 10:07:53;;;;;;;31.40;13.48;;;;;;;;;;5124973;27;20505;-66
2024/01/13 10:10:20;;;;;;;29.23;12.50;;;;;;;;;;5118767;27;20058;-66
2024/01/13 10:12:46;;;;;;;24.02;12.52;;;;;;;;;;5106671;27;20466;-66
2024/01/13 10:15:13;;;;;;;24.33;12.23;;;;;;;;;;5105665;27;20047;-66
2024/01/13 10:17:40;;;;;;;29.02;12.75;;;;;;;;;;5103565;27;20035;-66
2024/01/13 10:20:10;;;;;;;26.00;11.02;;;;;;;;;;5103725;27;20088;-66
2024/01/13 10:22:37;;;;;;;32.22;11.40;;;;;;;;;;5120342;27;20433;-66
2024/01/13 10:25:03;;;;;;;26.67;9.27;;;;;;;;;;5122880;27;20062;-66
2024/01/13 10:27:30;;;;;;;32.55;9.10;;;;;;;;;;5123881;27;20039;-66
2024/01/13 10:29:56;;;;;;;24.23;8.68;;;;;;;;;;5122827;27;20406;-66
2024/01/13 10:32:22;;;;;;;19.88;7.20;;;;;;;;;;5119594;27;20505;-66
2024/01/13 10:34:50;;;;;;;22.27;7.63;;;;;;;;;;5105530;27;20255;-66
2024/01/13 10:37:16;;;;;;;23.48;7.88;;;;;;;;;;5105390;27;20047;-66
2024/01/13 10:39:43;;;;;;;23.92;5.57;;;;;;;;;;5103788;28;20402;-66
2024/01/13 10:42:09;;;;;;;19.85;5.70;;;;;;;;;;5099041;27;20116;-65
2024/01/13 10:44:40;;;;;;;18.17;4.40;;;;;;;;;;5121817;27;20047;-66
2024/01/13 10:47:08;;;;;;;16.17;4.50;;;;;;;;;;5104995;27;20047;-66
2024/01/13 10:49:34;;;;;;;15.73;4.07;;;;;;;;;;5103916;28;20058;-66
2024/01/13 10:52:01;;;;;;;18.45;3.03;;;;;;;;;;5120184;27;20343;-66
2024/01/13 10:54:29;;;;;;;14.18;3.20;;;;;;;;;;5121519;28;20039;-66
2024/01/13 10:56:56;;;;;;;12.82;2.55;;;;;;;;;;5126378;27;20079;-66
2024/01/13 10:59:26;;;;;;;14.30;3.85;;;;;;;;;;5122334;27;20069;-66
2024/01/13 11:01:53;;;;;;;10.80;3.78;;;;;;;;;;5106138;27;20066;-69
2024/01/13 11:04:20;;;;;;;11.23;3.53;;;;;;;;;;5107323;27;20051;-73
2024/01/13 11:06:47;;;;;;;11.15;2.90;;;;;;;;;;5108738;27;20043;-66
2024/01/13 11:09:13;;;;;;;10.18;3.00;;;;;;;;;;5121570;27;20040;-65
2024/01/13 11:11:42;;;;;;;15.68;2.67;;;;;;;;;;5118915;27;20467;-65
2024/01/13 11:14:12;;;;;;;11.05;2.45;;;;;;;;;;5123866;27;20039;-65
2024/01/13 11:16:39;;;;;;;10.27;2.80;;;;;;;;;;5102010;27;20052;-65
2024/01/13 11:19:07;;;;;;;12.02;2.78;;;;;;;;;;5124757;27;20035;-65
2024/01/13 11:21:33;;;;;;;17.80;4.03;;;;;;;;;;5105255;27;20035;-65
2024/01/13 11:24:01;;;;;;;9.30;2.72;;;;;;;;;;5104780;27;20050;-66
2024/01/13 11:26:33;;;;;;;15.60;2.47;;;;;;;;;;5089667;27;20486;-65
2024/01/13 11:28:59;;;;;;;14.45;3.47;;;;;;;;;;5104423;27;20047;-65
2024/01/13 11:31:29;;;;;;;15.55;3.88;;;;;;;;;;5103430;27;20082;-66
2024/01/13 11:33:56;;;;;;;15.48;2.78;;;;;;;;;;5105878;27;20051;-66
2024/01/13 11:36:22;;;;;;;12.70;2.85;;;;;;;;;;5104774;27;20047;-66
2024/01/13 11:38:49;;;;;;;13.93;2.95;;;;;;;;;;5104230;27;20047;-66
2024/01/13 11:41:16;;;;;;;10.73;2.45;;;;;;;;;;5087235;27;20039;-66
2024/01/13 11:43:45;;;;;;;11.70;2.97;;;;;;;;;;5103191;27;20377;-66
2024/01/13 11:46:11;;;;;;;10.35;2.53;;;;;;;;;;5102416;27;20047;-66
2024/01/13 11:48:40;;;;;;;15.80;3.17;;;;;;;;;;5104276;27;20038;-66
2024/01/13 11:51:08;;;;;;;10.18;3.88;;;;;;;;;;5102130;27;20063;-66
2024/01/13 11:53:39;;;;;;;11.60;3.38;;;;;;;;;;5106853;27;20047;-66
2024/01/13 11:56:06;;;;;;;16.20;2.78;;;;;;;;;;5123778;27;20086;-66
2024/01/13 11:58:35;;;;;;;13.77;3.50;;;;;;;;;;5106356;27;20044;-66
2024/01/13 12:01:01;;;;;;;16.98;2.50;;;;;;;;;;5088978;27;20557;-66
2024/01/13 12:03:28;;;;;;;17.83;4.10;;;;;;;;;;5105684;27;20072;-66
2024/01/13 12:05:54;;;;;;;9.20;2.78;;;;;;;;;;5107806;27;20132;-66
2024/01/13 12:08:20;;;;;;;13.10;2.60;;;;;;;;;;5108576;27;20043;-65
2024/01/13 12:10:49;;;;;;;12.70;2.58;;;;;;;;;;5103999;27;20044;-66
2024/01/13 12:13:16;;;;;;;12.93;2.53;;;;;;;;;;5101065;27;20490;-66
2024/01/13 12:15:46;;;;;;;10.57;2.65;;;;;;;;;;5123846;27;20439;-66
2024/01/13 12:18:22;;;;;;;11.93;3.00;;;;;;;;;;5107148;27;20043;-66
2024/01/13 12:20:50;;;;;;;10.20;2.70;;;;;;;;;;5127016;27;20046;-65
2024/01/13 12:23:17;;;;;;;9.13;2.70;;;;;;;;;;5106084;27;20044;-65
2024/01/13 12:25:44;;;;;;;13.50;2.72;;;;;;;;;;5108178;27;20039;-66
2024/01/13 12:28:10;;;;;;;11.68;2.35;;;;;;;;;;5108018;27;20055;-65
2024/01/13 12:30:37;;;;;;;14.65;2.38;;;;;;;;;;5126045;27;20054;-66
2024/01/13 12:33:04;;;;;;;13.38;2.58;;;;;;;;;;5101797;27;20146;-66
2024/01/13 12:35:31;;;;;;;13.20;2.33;;;;;;;;;;5108719;27;20039;-65
2024/01/13 12:37:58;;;;;;;19.27;1.90;;;;;;;;;;5101121;27;20047;-66
2024/01/13 12:40:24;;;;;;;16.88;2.20;;;;;;;;;;5104961;27;20394;-66
2024/01/13 12:42:50;;;;;;;9.70;2.10;;;;;;;;;;5127204;27;20028;-66
2024/01/13 12:45:18;;;;;;;12.10;1.77;;;;;;;;;;5104556;27;20043;-65
2024/01/13 12:47:44;;;;;;;11.90;2.05;;;;;;;;;;5104861;27;20118;-66
2024/01/13 12:50:11;;;;;;;12.45;1.70;;;;;;;;;;5105382;27;20142;-66
2024/01/13 12:52:38;;;;;;;11.95;1.70;;;;;;;;;;5105925;27;20390;-65
2024/01/13 12:55:05;;;;;;;11.00;1.25;;;;;;;;;;5121242;27;20043;-66
2024/01/13 12:57:31;;;;;;;7.65;1.60;;;;;;;;;;5100947;27;20039;-65
2024/01/13 12:59:58;;;;;;;9.15;1.20;;;;;;;;;;5119065;27;20055;-65
2024/01/13 13:02:24;;;;;;;7.32;1.38;;;;;;;;;;5102273;27;20122;-65
2024/01/13 13:04:50;;;;;;;11.50;1.98;;;;;;;;;;5122972;27;20039;-66
2024/01/13 13:07:17;;;;;;;9.70;1.70;;;;;;;;;;5116996;27;20055;-72
2024/01/13 13:09:43;;;;;;;16.05;2.10;;;;;;;;;;5100338;27;20376;-66
2024/01/13 13:12:10;;;;;;;10.05;1.98;;;;;;;;;;5100905;27;20554;-66
2024/01/13 13:14:36;;;;;;;14.40;2.95;;;;;;;;;;5118714;27;20050;-66
2024/01/13 13:17:02;;;;;;;11.23;2.05;;;;;;;;;;5103344;27;20126;-66
2024/01/13 13:19:28;;;;;;;16.25;2.70;;;;;;;;;;5119379;27;20313;-66
2024/01/13 13:21:55;;;;;;;12.48;2.10;;;;;;;;;;5081622;27;20047;-66
2024/01/13 13:24:21;;;;;;;11.35;2.08;;;;;;;;;;5116064;27;20402;-65
2024/01/13 13:26:47;;;;;;;15.10;2.10;;;;;;;;;;5105666;27;20047;-66
2024/01/13 13:29:14;;;;;;;9.43;1.80;;;;;;;;;;5105105;27;20035;-65
2024/01/13 13:31:41;;;;;;;12.45;2.50;;;;;;;;;;5119665;27;20525;-65
2024/01/13 13:34:07;;;;;;;13.57;2.72;;;;;;;;;;5100560;27;20039;-65
2024/01/13 13:36:33;;;;;;;15.75;3.05;;;;;;;;;;5100858;27;20120;-65
2024/01/13 13:38:59;;;;;;;14.32;2.00;;;;;;;;;;5102747;27;20440;-65
2024/01/13 13:41:26;;;;;;;15.52;2.75;;;;;;;;;;5123030;27;20054;-65
2024/01/13 13:43:52;;;;;;;16.85;2.70;;;;;;;;;;5097357;27;20066;-65
2024/01/13 13:46:18;;;;;;;14.25;2.63;;;;;;;;;;5106505;27;20073;-65
2024/01/13 13:48:44;;;;;;;18.92;2.55;;;;;;;;;;5120687;27;20118;-64
2024/01/13 13:51:11;;;;;;;18.50;2.95;;;;;;;;;;5099513;27;20376;-64
2024/01/13 13:53:37;;;;;;;24.60;3.10;;;;;;;;;;5115533;27;20071;-64
2024/01/13 13:56:04;;;;;;;25.77;2.90;;;;;;;;;;5104109;27;20119;-65
2024/01/13 13:58:30;;;;;;;19.17;2.90;;;;;;;;;;5100250;27;20043;-65
2024/01/13 14:00:56;;;;;;;15.43;3.20;;;;;;;;;;5099511;27;20470;-65
2024/01/13 14:03:22;;;;;;;17.48;2.95;;;;;;;;;;5100146;27;20043;-66
2024/01/13 14:05:48;;;;;;;11.85;2.10;;;;;;;;;;5097030;27;20051;-65
2024/01/13 14:08:15;;;;;;;16.58;2.63;;;;;;;;;;5099359;27;20057;-65
2024/01/13 14:10:41;;;;;;;22.38;2.92;;;;;;;;;;5116746;27;20047;-65
2024/01/13 14:13:08;;;;;;;15.85;3.38;;;;;;;;;;5118939;27;20126;-65
2024/01/13 14:15:35;;;;;;;20.38;2.85;;;;;;;;;;5118035;27;20074;-65
2024/01/13 14:18:01;;;;;;;18.30;2.58;;;;;;;;;;5097593;27;20123;-65
2024/01/13 14:20:27;;;;;;;20.75;3.35;;;;;;;;;;5115616;27;20115;-65
2024/01/13 14:22:55;;;;;;;22.90;3.03;;;;;;;;;;5113380;27;20039;-65
2024/01/13 14:25:21;;;;;;;22.30;2.75;;;;;;;;;;5117344;27;20063;-65
2024/01/13 14:27:48;;;;;;;18.90;2.90;;;;;;;;;;5098018;28;20086;-65